createdAt,value
2023-02-26T00:00:47.661Z,1.65
2023-02-26T00:03:58.015Z,1.38
2023-02-26T00:07:04.897Z,1.55
2023-02-26T00:10:13.496Z,1.60
2023-02-26T00:13:18.696Z,1.55
2023-02-26T00:16:39.004Z,1.40
2023-02-26T00:19:44.639Z,1.58
2023-02-26T00:22:49.942Z,1.60
2023-02-26T00:25:54.710Z,1.75
2023-02-26T00:28:59.876Z,1.40
2023-02-26T00:32:05.524Z,1.42
2023-02-26T00:35:15.020Z,1.50
2023-02-26T00:38:19.888Z,1.73
2023-02-26T00:41:25.022Z,1.45
2023-02-26T00:44:29.940Z,1.70
2023-02-26T00:48:04.618Z,1.90
2023-02-26T00:51:44.597Z,1.55
2023-02-26T00:54:49.438Z,1.45
2023-02-26T00:57:53.896Z,1.65
2023-02-26T01:01:00.073Z,1.70
2023-02-26T01:04:05.630Z,1.67
2023-02-26T01:07:10.643Z,1.85
2023-02-26T01:10:15.290Z,2.30
2023-02-26T01:13:20.563Z,2.38
2023-02-26T01:16:31.414Z,1.80
2023-02-26T01:20:06.894Z,1.70
2023-02-26T01:23:18.009Z,1.90
2023-02-26T01:26:29.439Z,1.77
2023-02-26T01:29:34.524Z,1.65
2023-02-26T01:33:08.952Z,1.50
2023-02-26T01:36:27.579Z,1.35
2023-02-26T01:39:48.975Z,1.70
2023-02-26T01:42:58.446Z,1.40
2023-02-26T01:46:18.980Z,1.65
2023-02-26T01:49:24.399Z,1.67
2023-02-26T01:52:47.473Z,1.50
2023-02-26T01:56:03.009Z,1.40
2023-02-26T01:59:13.980Z,1.20
2023-02-26T02:02:23.258Z,1.17
2023-02-26T02:06:03.612Z,1.50
2023-02-26T02:09:09.340Z,1.38
2023-02-26T02:12:43.878Z,1.25
2023-02-26T02:19:51.606Z,1.23
2023-02-26T02:23:08.391Z,1.10
2023-02-26T02:26:52.452Z,1.40
2023-02-26T02:30:38.779Z,1.30
2023-02-26T02:34:09.378Z,1.40
2023-02-26T02:37:37.738Z,1.25
2023-02-26T02:40:49.148Z,1.15
2023-02-26T02:43:55.256Z,1.23
2023-02-26T02:47:00.442Z,1.13
2023-02-26T02:50:31.792Z,1.50
2023-02-26T02:54:07.485Z,1.40
2023-02-26T02:57:23.250Z,1.10
2023-02-26T03:00:31.401Z,1.10
2023-02-26T03:03:45.537Z,1.20
2023-02-26T03:06:50.561Z,1.30
2023-02-26T03:10:03.158Z,1.13
2023-02-26T03:13:22.553Z,1.40
2023-02-26T03:17:02.184Z,1.50
2023-02-26T03:20:23.925Z,1.20
2023-02-26T03:23:58.897Z,1.48
2023-02-26T03:30:43.121Z,1.02
2023-02-26T03:34:17.854Z,1.33
2023-02-26T03:37:48.915Z,1.10
2023-02-26T03:41:05.672Z,1.20
2023-02-26T03:44:26.857Z,1.02
2023-02-26T03:47:33.623Z,0.98
2023-02-26T03:50:46.419Z,1.05
2023-02-26T03:54:26.845Z,1.00
2023-02-26T03:57:47.187Z,1.10
2023-02-26T04:01:08.414Z,0.90
2023-02-26T04:04:46.336Z,1.20
2023-02-26T04:07:51.389Z,1.00
2023-02-26T04:11:11.253Z,1.00
2023-02-26T04:14:15.903Z,1.10
2023-02-26T04:17:21.413Z,1.10
2023-02-26T04:20:25.972Z,1.10
2023-02-26T04:23:32.299Z,1.00
2023-02-26T04:26:36.949Z,1.00
2023-02-26T04:29:41.450Z,0.98
2023-02-26T04:32:46.283Z,1.10
2023-02-26T04:35:52.836Z,0.98
2023-02-26T04:38:58.482Z,0.90
2023-02-26T04:42:04.417Z,1.08
2023-02-26T04:45:10.392Z,1.10
2023-02-26T04:48:17.469Z,1.38
2023-02-26T04:51:21.938Z,1.08
2023-02-26T04:54:28.510Z,1.20
2023-02-26T04:57:33.087Z,1.00
2023-02-26T05:00:37.957Z,1.20
2023-02-26T05:03:42.441Z,1.10
2023-02-26T05:06:47.944Z,1.15
2023-02-26T05:09:52.538Z,1.00
2023-02-26T05:12:57.002Z,1.20
2023-02-26T05:16:01.982Z,1.00
2023-02-26T05:19:07.207Z,1.00
2023-02-26T05:22:12.367Z,1.20
2023-02-26T05:25:18.132Z,1.13
2023-02-26T05:28:25.600Z,1.10
2023-02-26T05:31:30.077Z,1.40
2023-02-26T05:34:34.450Z,0.90
2023-02-26T05:37:39.683Z,1.10
2023-02-26T05:40:44.408Z,1.00
2023-02-26T05:43:49.037Z,1.10
2023-02-26T05:46:53.485Z,1.20
2023-02-26T05:49:57.970Z,1.10
2023-02-26T05:53:02.538Z,1.20
2023-02-26T05:56:07.861Z,1.40
2023-02-26T05:59:12.922Z,1.13
2023-02-26T06:02:17.806Z,1.10
2023-02-26T06:05:22.082Z,1.00
2023-02-26T06:08:26.843Z,1.10
2023-02-26T06:11:33.955Z,1.35
2023-02-26T06:14:38.740Z,1.05
2023-02-26T06:17:43.545Z,0.80
2023-02-26T06:20:48.403Z,1.27
2023-02-26T06:23:53.124Z,1.30
2023-02-26T06:26:57.307Z,1.20
2023-02-26T06:30:02.776Z,1.10
2023-02-26T06:33:07.375Z,1.05
2023-02-26T06:36:12.009Z,0.95
2023-02-26T06:39:16.902Z,1.10
2023-02-26T06:42:21.468Z,1.10
2023-02-26T06:45:25.905Z,1.60
2023-02-26T06:48:30.582Z,1.42
2023-02-26T06:51:36.248Z,1.10
2023-02-26T06:54:40.883Z,1.40
2023-02-26T06:57:45.882Z,1.10
2023-02-26T07:00:50.862Z,1.20
2023-02-26T07:03:55.547Z,1.10
2023-02-26T07:06:59.779Z,0.90
2023-02-26T07:10:05.461Z,0.90
2023-02-26T07:13:09.929Z,1.23
2023-02-26T07:16:14.438Z,1.67
2023-02-26T07:19:18.885Z,1.70
2023-02-26T07:22:23.592Z,1.20
2023-02-26T07:25:27.927Z,1.08
2023-02-26T07:28:32.433Z,1.25
2023-02-26T07:31:37.367Z,1.33
2023-02-26T07:34:42.440Z,1.05
2023-02-26T07:37:46.841Z,1.20
2023-02-26T07:40:51.480Z,1.20
2023-02-26T07:43:56.123Z,1.40
2023-02-26T07:47:01.173Z,1.17
2023-02-26T07:50:06.772Z,1.33
2023-02-26T07:53:11.484Z,1.20
2023-02-26T07:56:16.232Z,1.52
2023-02-26T07:59:20.776Z,1.25
2023-02-26T08:02:25.604Z,1.35
2023-02-26T08:05:30.328Z,1.00
2023-02-26T08:08:35.075Z,1.00
2023-02-26T08:11:40.618Z,1.10
2023-02-26T08:14:44.854Z,1.02
2023-02-26T08:17:51.697Z,1.70
2023-02-26T08:20:55.995Z,1.20
2023-02-26T08:24:00.925Z,1.10
2023-02-26T08:27:05.680Z,1.10
2023-02-26T08:30:11.584Z,1.13
2023-02-26T08:33:16.120Z,0.90
2023-02-26T08:36:21.971Z,0.98
2023-02-26T08:39:26.762Z,1.08
2023-02-26T08:42:31.208Z,1.00
2023-02-26T08:45:35.966Z,0.98
2023-02-26T08:48:40.514Z,1.00
2023-02-26T08:51:44.650Z,0.85
2023-02-26T08:54:48.993Z,0.93
2023-02-26T08:57:53.488Z,1.20
2023-02-26T09:00:58.263Z,0.93
2023-02-26T09:04:03.057Z,0.77
2023-02-26T09:07:07.840Z,0.88
2023-02-26T09:10:13.976Z,0.80
2023-02-26T09:13:18.702Z,1.05
2023-02-26T09:16:23.899Z,1.20
2023-02-26T09:19:29.323Z,1.20
2023-02-26T09:22:33.633Z,1.10
2023-02-26T09:25:38.984Z,1.20
2023-02-26T09:28:43.437Z,1.00
2023-02-26T09:31:47.634Z,0.80
2023-02-26T09:34:52.895Z,1.00
2023-02-26T09:37:57.629Z,1.00
2023-02-26T09:41:18.931Z,1.25
2023-02-26T09:44:27.594Z,1.20
2023-02-26T09:47:46.804Z,1.02
2023-02-26T09:50:57.597Z,1.00
2023-02-26T09:54:16.143Z,0.90
2023-02-26T09:57:36.041Z,1.10
2023-02-26T10:01:18.785Z,0.90
2023-02-26T10:04:36.893Z,0.88
2023-02-26T10:08:05.834Z,1.27
2023-02-26T10:11:26.593Z,0.85
2023-02-26T10:15:00.131Z,1.05
2023-02-26T10:18:17.711Z,0.90
2023-02-26T10:22:04.483Z,0.70
2023-02-26T10:25:45.684Z,0.70
2023-02-26T10:29:33.869Z,0.80
2023-02-26T10:32:50.972Z,0.73
2023-02-26T10:36:02.796Z,1.17
2023-02-26T10:39:32.869Z,0.80
2023-02-26T10:43:00.949Z,0.85
2023-02-26T10:46:38.068Z,1.20
2023-02-26T10:50:04.379Z,0.80
2023-02-26T10:53:12.806Z,0.70
2023-02-26T10:56:22.234Z,0.80
2023-02-26T10:59:27.718Z,0.90
2023-02-26T11:02:43.238Z,0.80
2023-02-26T11:05:48.897Z,0.80
2023-02-26T11:08:57.445Z,1.00
2023-02-26T11:12:12.824Z,1.08
2023-02-26T11:15:25.537Z,0.60
2023-02-26T11:18:39.441Z,0.73
2023-02-26T11:21:47.224Z,0.80
2023-02-26T11:24:52.424Z,0.90
2023-02-26T11:28:08.162Z,0.65
2023-02-26T11:31:18.732Z,0.90
2023-02-26T11:34:26.124Z,0.80
2023-02-26T11:37:37.242Z,0.90
2023-02-26T11:40:45.662Z,0.73
2023-02-26T11:44:06.739Z,0.85
2023-02-26T11:47:16.300Z,0.95
2023-02-26T11:50:23.171Z,0.90
2023-02-26T11:53:33.016Z,0.73
2023-02-26T11:56:42.847Z,1.00
2023-02-26T11:59:54.109Z,1.20
2023-02-26T12:03:05.146Z,0.93
2023-02-26T12:06:21.678Z,0.82
2023-02-26T12:09:27.924Z,1.00
2023-02-26T12:13:03.823Z,1.00
2023-02-26T12:16:21.946Z,0.80
2023-02-26T12:19:42.174Z,0.85
2023-02-26T12:23:08.424Z,1.30
2023-02-26T12:26:55.011Z,0.80
2023-02-26T12:30:11.529Z,1.00
2023-02-26T12:33:28.250Z,1.10
2023-02-26T12:37:25.899Z,0.90
2023-02-26T12:40:46.919Z,0.85
2023-02-26T12:43:54.976Z,1.00
2023-02-26T12:47:18.062Z,1.20
2023-02-26T12:50:36.846Z,0.80
2023-02-26T12:53:47.760Z,0.80
2023-02-26T12:57:09.041Z,0.80
2023-02-26T13:00:19.119Z,0.90
2023-02-26T13:04:03.327Z,0.88
2023-02-26T13:07:29.384Z,1.00
2023-02-26T13:11:30.620Z,0.80
2023-02-26T13:14:56.204Z,1.10
2023-02-26T13:18:20.671Z,1.10
2023-02-26T13:24:46.087Z,1.00
2023-02-26T13:27:53.276Z,0.88
2023-02-26T13:30:59.800Z,0.88
2023-02-26T13:34:18.231Z,1.05
2023-02-26T13:37:29.161Z,1.00
2023-02-26T13:41:12.641Z,0.90
2023-02-26T13:45:02.793Z,0.93
2023-02-26T13:48:22.344Z,1.13
2023-02-26T13:51:56.830Z,1.05
2023-02-26T13:55:05.456Z,0.98
2023-02-26T13:58:23.543Z,0.65
2023-02-26T14:01:49.168Z,0.95
2023-02-26T14:04:58.655Z,1.02
2023-02-26T14:08:48.884Z,0.80
2023-02-26T14:12:03.548Z,1.10
2023-02-26T14:18:35.397Z,1.63
2023-02-26T14:22:11.910Z,0.90
2023-02-26T14:25:52.814Z,0.88
2023-02-26T14:29:06.366Z,1.00
2023-02-26T14:32:11.465Z,0.95
2023-02-26T14:35:28.653Z,0.93
2023-02-26T14:38:40.912Z,0.88
2023-02-26T14:41:46.422Z,1.00
2023-02-26T14:45:08.880Z,1.40
2023-02-26T14:48:21.276Z,0.90
2023-02-26T14:52:14.954Z,0.70
2023-02-26T14:55:46.146Z,1.13
2023-02-26T14:59:36.287Z,1.05
2023-02-26T15:03:09.209Z,0.77
2023-02-26T15:07:06.195Z,0.80
2023-02-26T15:10:40.173Z,0.98
2023-02-26T15:14:13.690Z,0.90
2023-02-26T15:17:18.274Z,0.85
2023-02-26T15:20:31.883Z,0.85
2023-02-26T15:23:46.015Z,0.75
2023-02-26T15:26:54.575Z,0.90
2023-02-26T15:30:00.668Z,0.90
2023-02-26T15:33:13.115Z,0.80
2023-02-26T15:36:22.017Z,0.80
2023-02-26T15:39:26.694Z,0.80
2023-02-26T15:42:38.615Z,0.80
2023-02-26T15:45:57.387Z,0.70
2023-02-26T15:49:19.282Z,0.73
2023-02-26T15:52:27.038Z,0.95
2023-02-26T15:55:39.216Z,0.63
2023-02-26T15:58:50.183Z,0.93
2023-02-26T16:01:55.474Z,0.70
2023-02-26T16:05:03.337Z,0.60
2023-02-26T16:08:13.965Z,0.80
2023-02-26T16:11:19.729Z,0.90
2023-02-26T16:14:43.647Z,0.60
2023-02-26T16:17:50.992Z,0.77
2023-02-26T16:20:59.502Z,1.05
2023-02-26T16:24:08.163Z,0.73
2023-02-26T16:27:13.953Z,0.90
2023-02-26T16:30:23.702Z,0.75
2023-02-26T16:33:34.803Z,0.80
2023-02-26T16:36:41.775Z,0.70
2023-02-26T16:39:46.530Z,0.70
2023-02-26T16:42:51.146Z,0.70
2023-02-26T16:45:57.186Z,0.80
2023-02-26T16:49:25.656Z,0.70
2023-02-26T16:52:30.678Z,0.80
2023-02-26T16:55:39.994Z,0.60
2023-02-26T16:58:57.700Z,0.63
2023-02-26T17:02:04.825Z,0.70
2023-02-26T17:05:25.835Z,0.90
2023-02-26T17:08:54.020Z,0.90
2023-02-26T17:12:15.791Z,0.60
2023-02-26T17:15:50.589Z,0.65
2023-02-26T17:18:55.575Z,0.70
2023-02-26T17:22:01.007Z,0.60
2023-02-26T17:25:06.244Z,0.70
2023-02-26T17:28:18.074Z,0.52
2023-02-26T17:31:23.286Z,1.05
2023-02-26T17:34:27.904Z,0.70
2023-02-26T17:37:35.087Z,0.80
2023-02-26T17:40:41.786Z,0.93
2023-02-26T17:43:46.436Z,1.05
2023-02-26T17:46:51.187Z,0.90
2023-02-26T17:49:55.768Z,0.77
2023-02-26T17:53:00.452Z,1.10
2023-02-26T17:56:10.057Z,1.15
2023-02-26T17:59:14.769Z,1.08
2023-02-26T18:02:28.313Z,1.05
2023-02-26T18:05:38.320Z,1.00
2023-02-26T18:08:43.099Z,1.20
2023-02-26T18:11:47.411Z,1.00
2023-02-26T18:14:52.264Z,1.05
2023-02-26T18:17:57.738Z,1.02
2023-02-26T18:21:02.508Z,1.00
2023-02-26T18:24:07.830Z,0.93
2023-02-26T18:27:19.322Z,1.25
2023-02-26T18:30:29.075Z,1.48
2023-02-26T18:33:33.768Z,1.20
2023-02-26T18:36:39.645Z,1.27
2023-02-26T18:39:44.363Z,1.00
2023-02-26T18:42:49.920Z,1.35
2023-02-26T18:45:55.424Z,1.88
2023-02-26T18:49:00.903Z,1.30
2023-02-26T18:52:05.831Z,1.02
2023-02-26T18:55:12.327Z,1.05
2023-02-26T18:58:17.694Z,1.02
2023-02-26T19:01:22.209Z,1.23
2023-02-26T19:04:27.253Z,1.10
2023-02-26T19:07:31.737Z,0.88
2023-02-26T19:10:36.930Z,1.10
2023-02-26T19:13:42.137Z,1.15
2023-02-26T19:16:47.061Z,1.08
2023-02-26T19:19:51.432Z,1.13
2023-02-26T19:22:55.750Z,1.10
2023-02-26T19:26:00.528Z,1.20
2023-02-26T19:29:07.220Z,1.20
2023-02-26T19:32:12.378Z,1.30
2023-02-26T19:35:18.123Z,1.30
2023-02-26T19:38:23.561Z,1.42
2023-02-26T19:41:28.782Z,1.58
2023-02-26T19:44:33.468Z,1.38
2023-02-26T19:47:38.502Z,1.20
2023-02-26T19:50:43.628Z,1.05
2023-02-26T19:53:48.364Z,1.25
2023-02-26T19:56:53.354Z,1.30
2023-02-26T19:59:59.646Z,0.98
2023-02-26T20:03:04.251Z,1.20
2023-02-26T20:06:10.570Z,1.45
2023-02-26T20:09:14.971Z,1.20
2023-02-26T20:12:19.966Z,1.20
2023-02-26T20:15:25.643Z,1.08
2023-02-26T20:18:31.443Z,1.08
2023-02-26T20:21:36.244Z,1.00
2023-02-26T20:24:41.233Z,1.15
2023-02-26T20:27:46.316Z,1.50
2023-02-26T20:30:51.508Z,1.10
2023-02-26T20:33:56.889Z,1.00
2023-02-26T20:37:01.647Z,1.30
2023-02-26T20:40:07.996Z,1.00
2023-02-26T20:43:12.558Z,1.15
2023-02-26T20:46:17.494Z,1.05
2023-02-26T20:49:21.978Z,1.20
2023-02-26T20:52:27.256Z,1.63
2023-02-26T20:55:31.873Z,1.20
2023-02-26T20:58:38.341Z,0.80
2023-02-26T21:01:42.838Z,1.20
2023-02-26T21:04:48.479Z,1.00
2023-02-26T21:07:53.283Z,1.10
2023-02-26T21:10:58.137Z,1.10
2023-02-26T21:14:04.656Z,1.20
2023-02-26T21:17:09.465Z,1.02
2023-02-26T21:20:18.031Z,1.00
2023-02-26T21:23:22.662Z,1.10
2023-02-26T21:26:27.751Z,0.90
2023-02-26T21:29:32.436Z,1.20
2023-02-26T21:32:37.064Z,0.90
2023-02-26T21:35:41.838Z,0.90
2023-02-26T21:38:46.714Z,1.10
2023-02-26T21:41:51.363Z,1.30
2023-02-26T21:44:56.090Z,1.23
2023-02-26T21:48:01.174Z,1.20
2023-02-26T21:51:06.250Z,1.05
2023-02-26T21:54:11.040Z,1.00
2023-02-26T21:57:15.820Z,1.08
2023-02-26T22:00:20.974Z,0.95
2023-02-26T22:03:25.538Z,1.00
2023-02-26T22:06:30.185Z,0.90
2023-02-26T22:09:35.759Z,0.82
2023-02-26T22:12:40.437Z,1.10
2023-02-26T22:15:44.906Z,0.80
2023-02-26T22:18:49.372Z,0.65
2023-02-26T22:21:54.196Z,0.85
2023-02-26T22:24:58.616Z,0.90
2023-02-26T22:28:03.399Z,1.10
2023-02-26T22:31:08.195Z,0.90
2023-02-26T22:34:12.707Z,0.80
2023-02-26T22:37:17.491Z,0.80
2023-02-26T22:40:22.022Z,0.98
2023-02-26T22:43:26.813Z,1.10
2023-02-26T22:46:32.244Z,1.33
2023-02-26T22:49:37.042Z,0.85
2023-02-26T22:52:42.461Z,0.93
2023-02-26T22:55:47.073Z,1.08
2023-02-26T22:58:51.570Z,1.20
2023-02-26T23:01:56.168Z,0.85
2023-02-26T23:05:00.609Z,1.17
2023-02-26T23:08:04.909Z,1.20
2023-02-26T23:11:09.654Z,1.08
2023-02-26T23:14:14.266Z,1.20
2023-02-26T23:17:18.762Z,1.17
2023-02-26T23:20:23.438Z,1.63
2023-02-26T23:23:28.345Z,1.13
2023-02-26T23:26:32.982Z,1.30
2023-02-26T23:29:37.962Z,1.50
2023-02-26T23:32:42.652Z,1.20
2023-02-26T23:35:47.999Z,1.00
2023-02-26T23:38:52.665Z,1.00
2023-02-26T23:41:58.174Z,1.10
2023-02-26T23:45:03.396Z,1.00
2023-02-26T23:48:07.830Z,1.10
2023-02-26T23:51:12.498Z,1.10
2023-02-26T23:54:16.907Z,1.00
2023-02-26T23:57:21.469Z,1.10
